createdAt,value
2023-02-02T00:02:27.430Z,3.03
2023-02-02T00:04:58.656Z,4.30
2023-02-02T00:07:29.073Z,3.05
2023-02-02T00:12:41.921Z,3.45
2023-02-02T00:17:59.299Z,3.28
2023-02-02T00:20:38.108Z,3.10
2023-02-02T00:23:17.725Z,3.22
2023-02-02T00:25:55.108Z,2.35
2023-02-02T00:28:32.592Z,4.88
2023-02-02T00:31:14.196Z,2.33
2023-02-02T00:33:45.997Z,3.80
2023-02-02T00:36:21.874Z,3.92
2023-02-02T00:39:00.571Z,2.80
2023-02-02T00:41:27.625Z,3.88
2023-02-02T00:46:57.482Z,3.75
2023-02-02T00:49:25.756Z,3.05
2023-02-02T00:54:45.056Z,3.97
2023-02-02T01:01:44.829Z,2.40
2023-02-02T01:09:43.137Z,4.32
2023-02-02T01:14:54.507Z,2.03
2023-02-02T01:20:09.640Z,3.30
2023-02-02T01:25:27.761Z,3.35
2023-02-02T01:28:00.001Z,2.85
2023-02-02T01:30:28.092Z,3.03
2023-02-02T01:38:27.707Z,1.73
2023-02-02T01:44:00.545Z,4.20
2023-02-02T01:46:40.662Z,3.10
2023-02-02T01:49:22.446Z,2.75
2023-02-02T01:52:07.503Z,5.15
2023-02-02T01:54:43.993Z,4.78
2023-02-02T01:57:30.121Z,3.42
2023-02-02T01:59:59.425Z,3.13
2023-02-02T02:02:31.790Z,3.95
2023-02-02T02:05:04.819Z,3.85
2023-02-02T02:07:40.775Z,3.85
2023-02-02T02:10:14.235Z,2.83
2023-02-02T02:12:44.880Z,3.28
2023-02-02T02:15:30.233Z,3.63
2023-02-02T02:18:12.431Z,3.03
2023-02-02T02:21:35.697Z,3.03
2023-02-02T02:25:19.413Z,4.20
2023-02-02T02:28:00.794Z,3.05
2023-02-02T02:33:50.534Z,4.68
2023-02-02T02:36:34.276Z,4.10
2023-02-02T02:41:59.537Z,2.70
2023-02-02T02:44:36.222Z,3.38
2023-02-02T02:47:15.491Z,3.22
2023-02-02T02:49:49.099Z,3.80
2023-02-02T02:52:16.950Z,3.35
2023-02-02T02:55:00.083Z,2.50
2023-02-02T02:58:02.562Z,3.08
2023-02-02T03:00:47.717Z,4.03
2023-02-02T03:03:37.309Z,3.08
2023-02-02T03:09:21.680Z,3.92
2023-02-02T03:11:49.647Z,2.38
2023-02-02T03:16:45.874Z,4.03
2023-02-02T03:19:12.608Z,3.00
2023-02-02T03:21:39.111Z,2.88
2023-02-02T03:26:47.002Z,3.63
2023-02-02T03:29:19.063Z,4.43
2023-02-02T03:31:46.979Z,3.92
2023-02-02T03:39:24.069Z,5.25
2023-02-02T03:41:54.936Z,5.05
2023-02-02T03:44:21.919Z,4.70
2023-02-02T03:46:49.663Z,3.47
2023-02-02T03:51:57.206Z,6.85
2023-02-02T03:57:05.653Z,4.22
2023-02-02T04:02:13.036Z,3.65
2023-02-02T04:04:39.553Z,4.87
2023-02-02T04:09:49.255Z,5.30
2023-02-02T04:12:21.035Z,4.20
2023-02-02T04:14:49.780Z,6.93
2023-02-02T04:17:17.657Z,6.22
2023-02-02T04:22:10.758Z,6.53
2023-02-02T04:24:38.176Z,4.95
2023-02-02T04:27:04.971Z,4.82
2023-02-02T04:29:32.055Z,5.18
2023-02-02T04:31:58.922Z,3.07
2023-02-02T04:34:25.673Z,4.00
2023-02-02T04:36:52.168Z,4.88
2023-02-02T04:39:19.893Z,3.53
2023-02-02T04:41:46.590Z,5.90
2023-02-02T04:44:18.018Z,3.17
2023-02-02T04:46:44.735Z,6.03
2023-02-02T04:49:12.088Z,5.35
2023-02-02T04:51:40.039Z,3.60
2023-02-02T04:56:39.470Z,3.85
2023-02-02T04:59:06.111Z,3.13
2023-02-02T05:01:32.740Z,4.93
2023-02-02T05:04:03.510Z,2.97
2023-02-02T05:06:30.030Z,7.63
2023-02-02T05:08:57.866Z,6.93
2023-02-02T05:14:06.242Z,6.80
2023-02-02T05:19:17.517Z,5.18
2023-02-02T05:24:25.534Z,6.40
2023-02-02T05:29:35.358Z,5.18
2023-02-02T05:32:03.512Z,4.07
2023-02-02T05:34:34.251Z,5.20
2023-02-02T05:37:01.113Z,6.25
2023-02-02T05:39:27.611Z,4.43
2023-02-02T05:41:54.158Z,6.93
2023-02-02T05:44:22.254Z,5.78
2023-02-02T05:46:49.945Z,8.70
2023-02-02T05:49:16.494Z,6.18
2023-02-02T05:51:46.793Z,3.53
2023-02-02T05:54:17.375Z,6.90
2023-02-02T05:56:43.845Z,6.95
2023-02-02T05:59:10.403Z,4.95
2023-02-02T06:01:38.135Z,8.02
2023-02-02T06:04:04.721Z,5.78
2023-02-02T06:06:31.456Z,8.20
2023-02-02T06:09:01.564Z,4.30
2023-02-02T06:11:28.203Z,5.78
2023-02-02T06:13:54.998Z,6.25
2023-02-02T06:16:21.725Z,3.53
2023-02-02T06:18:49.080Z,4.45
2023-02-02T06:21:15.856Z,3.75
2023-02-02T06:23:49.821Z,4.95
2023-02-02T06:26:19.255Z,6.30
2023-02-02T06:28:51.429Z,4.65
2023-02-02T06:31:20.206Z,4.50
2023-02-02T06:33:48.496Z,7.78
2023-02-02T06:36:16.145Z,5.95
2023-02-02T06:38:42.947Z,5.95
2023-02-02T06:41:09.465Z,5.57
2023-02-02T06:43:36.137Z,9.05
2023-02-02T06:46:02.982Z,8.00
2023-02-02T06:48:34.342Z,8.00
2023-02-02T06:51:01.435Z,6.75
2023-02-02T06:53:34.605Z,9.20
2023-02-02T06:56:05.841Z,6.32
2023-02-02T06:58:35.065Z,6.15
2023-02-02T07:01:10.709Z,7.55
2023-02-02T07:03:39.472Z,7.35
2023-02-02T07:06:23.456Z,4.10
2023-02-02T07:08:57.504Z,4.35
2023-02-02T07:11:30.035Z,3.70
2023-02-02T07:13:59.969Z,3.92
2023-02-02T07:16:26.564Z,7.75
2023-02-02T07:18:54.624Z,7.25
2023-02-02T07:21:23.873Z,4.97
2023-02-02T07:23:51.151Z,7.85
2023-02-02T07:26:19.226Z,5.32
2023-02-02T07:28:53.670Z,4.38
2023-02-02T07:33:42.631Z,5.00
2023-02-02T07:36:11.079Z,6.93
2023-02-02T07:38:38.718Z,7.63
2023-02-02T07:41:05.808Z,7.82
2023-02-02T07:43:32.682Z,3.70
2023-02-02T07:46:03.473Z,5.65
2023-02-02T07:48:31.274Z,7.28
2023-02-02T07:51:02.512Z,5.53
2023-02-02T07:53:29.882Z,6.07
2023-02-02T07:56:24.040Z,4.88
2023-02-02T07:58:55.945Z,5.18
2023-02-02T08:01:26.450Z,8.50
2023-02-02T08:03:55.429Z,7.70
2023-02-02T08:06:37.646Z,5.13
2023-02-02T08:09:07.873Z,5.85
2023-02-02T08:11:35.895Z,5.53
2023-02-02T08:14:04.409Z,5.70
2023-02-02T08:16:32.603Z,7.88
2023-02-02T08:18:59.835Z,6.30
2023-02-02T08:21:26.595Z,7.10
2023-02-02T08:23:54.299Z,5.85
2023-02-02T08:26:24.419Z,4.28
2023-02-02T08:29:00.537Z,6.32
2023-02-02T08:31:30.917Z,4.72
2023-02-02T08:33:58.785Z,5.45
2023-02-02T08:36:27.593Z,4.72
2023-02-02T08:38:54.621Z,8.27
2023-02-02T08:41:24.027Z,6.07
2023-02-02T08:43:51.315Z,5.30
2023-02-02T08:46:20.517Z,4.40
2023-02-02T08:48:48.547Z,6.70
2023-02-02T08:51:18.634Z,5.65
2023-02-02T08:53:46.847Z,6.15
2023-02-02T08:56:16.759Z,5.68
2023-02-02T08:58:55.406Z,5.82
2023-02-02T09:01:25.594Z,6.90
2023-02-02T09:03:57.451Z,4.50
2023-02-02T09:06:38.249Z,4.40
2023-02-02T09:09:07.643Z,7.28
2023-02-02T09:11:35.504Z,5.60
2023-02-02T09:14:03.874Z,8.43
2023-02-02T09:16:30.706Z,8.95
2023-02-02T09:18:57.481Z,8.18
2023-02-02T09:21:24.730Z,6.15
2023-02-02T09:23:56.146Z,5.37
2023-02-02T09:26:28.932Z,7.68
2023-02-02T09:28:58.254Z,7.32
2023-02-02T09:31:26.536Z,8.20
2023-02-02T09:33:53.425Z,7.78
2023-02-02T09:36:23.458Z,5.30
2023-02-02T09:38:51.518Z,6.20
2023-02-02T09:41:42.442Z,6.38
2023-02-02T09:44:25.893Z,6.22
2023-02-02T09:47:23.940Z,7.53
2023-02-02T09:50:21.294Z,11.55
2023-02-02T09:53:11.255Z,4.70
2023-02-02T09:55:45.432Z,6.32
2023-02-02T09:58:31.322Z,7.20
2023-02-02T10:01:21.371Z,8.63
2023-02-02T10:04:13.011Z,7.35
2023-02-02T10:06:42.633Z,7.47
2023-02-02T10:09:34.183Z,7.80
2023-02-02T10:12:06.631Z,8.98
2023-02-02T10:15:06.447Z,7.80
2023-02-02T10:17:44.471Z,7.63
2023-02-02T10:20:43.920Z,7.65
2023-02-02T10:23:32.678Z,8.68
2023-02-02T10:26:19.949Z,7.57
2023-02-02T10:29:05.357Z,9.15
2023-02-02T10:32:06.691Z,12.00
2023-02-02T10:35:13.411Z,7.70
2023-02-02T10:37:54.399Z,10.07
2023-02-02T10:40:37.617Z,6.28
2023-02-02T10:43:46.114Z,5.78
2023-02-02T10:46:25.271Z,6.10
2023-02-02T10:49:09.238Z,5.63
2023-02-02T10:51:36.303Z,6.28
2023-02-02T10:54:24.146Z,9.87
2023-02-02T10:56:54.427Z,5.60
2023-02-02T10:59:33.791Z,7.65
2023-02-02T11:02:11.685Z,4.85
2023-02-02T11:05:04.516Z,6.40
2023-02-02T11:07:31.211Z,5.88
2023-02-02T11:09:57.924Z,5.55
2023-02-02T11:12:31.008Z,4.90
2023-02-02T11:15:08.278Z,5.45
2023-02-02T11:17:35.677Z,5.70
2023-02-02T11:20:21.792Z,9.70
2023-02-02T11:23:00.047Z,11.10
2023-02-02T11:25:32.777Z,5.53
2023-02-02T11:28:21.021Z,4.90
2023-02-02T11:30:52.477Z,7.00
2023-02-02T11:33:30.615Z,7.88
2023-02-02T11:36:00.617Z,8.00
2023-02-02T11:38:28.265Z,7.50
2023-02-02T11:41:01.123Z,6.63
2023-02-02T11:43:41.387Z,6.50
2023-02-02T11:46:20.896Z,6.55
2023-02-02T11:48:53.520Z,7.53
2023-02-02T11:51:25.079Z,4.90
2023-02-02T11:54:03.598Z,4.25
2023-02-02T11:56:30.621Z,7.25
2023-02-02T11:59:04.280Z,10.67
2023-02-02T12:01:41.529Z,4.97
2023-02-02T12:04:17.958Z,5.65
2023-02-02T12:06:44.804Z,7.47
2023-02-02T12:09:15.272Z,5.38
2023-02-02T12:11:51.919Z,6.78
2023-02-02T12:14:43.723Z,5.65
2023-02-02T12:17:49.425Z,5.07
2023-02-02T12:20:28.118Z,6.32
2023-02-02T12:23:22.510Z,6.68
2023-02-02T12:26:04.726Z,7.63
2023-02-02T12:29:06.051Z,6.40
2023-02-02T12:31:53.570Z,6.43
2023-02-02T12:34:32.749Z,4.95
2023-02-02T12:37:18.094Z,5.72
2023-02-02T12:40:12.410Z,5.32
2023-02-02T12:43:00.837Z,4.70
2023-02-02T12:45:52.125Z,5.43
2023-02-02T12:48:25.092Z,4.95
2023-02-02T12:51:29.306Z,3.83
2023-02-02T12:54:33.171Z,5.32
2023-02-02T12:57:27.078Z,3.15
2023-02-02T13:00:27.861Z,4.53
2023-02-02T13:03:27.326Z,4.85
2023-02-02T13:06:13.108Z,6.25
2023-02-02T13:08:58.049Z,4.05
2023-02-02T13:11:49.973Z,6.47
2023-02-02T13:14:32.179Z,8.02
2023-02-02T13:17:31.882Z,5.47
2023-02-02T13:20:05.700Z,4.15
2023-02-02T13:22:42.075Z,5.57
2023-02-02T13:25:31.960Z,7.43
2023-02-02T13:28:01.071Z,5.88
2023-02-02T13:30:28.914Z,3.67
2023-02-02T13:33:01.049Z,4.13
2023-02-02T13:35:41.420Z,4.45
2023-02-02T13:38:25.128Z,5.80
2023-02-02T13:40:57.666Z,6.18
2023-02-02T13:43:24.903Z,5.60
2023-02-02T13:46:08.331Z,5.15
2023-02-02T13:49:00.744Z,3.53
2023-02-02T13:51:30.966Z,3.47
2023-02-02T13:54:32.202Z,3.83
2023-02-02T13:57:11.870Z,5.15
2023-02-02T14:00:03.727Z,4.30
2023-02-02T14:02:50.603Z,4.07
2023-02-02T14:05:26.480Z,3.57
2023-02-02T14:08:20.706Z,3.40
2023-02-02T14:10:53.537Z,4.60
2023-02-02T14:13:47.245Z,3.47
2023-02-02T14:16:43.337Z,4.35
2023-02-02T14:19:19.189Z,4.18
2023-02-02T14:21:49.028Z,3.80
2023-02-02T14:24:37.843Z,3.15
2023-02-02T14:27:30.453Z,4.10
2023-02-02T14:29:57.560Z,3.75
2023-02-02T14:32:30.856Z,4.15
2023-02-02T14:35:24.925Z,3.90
2023-02-02T14:38:09.423Z,3.92
2023-02-02T14:40:45.117Z,3.72
2023-02-02T14:43:31.059Z,3.10
2023-02-02T14:46:10.859Z,3.13
2023-02-02T14:48:44.400Z,4.05
2023-02-02T14:51:23.398Z,4.57
2023-02-02T14:53:56.291Z,3.33
2023-02-02T14:56:42.779Z,3.30
2023-02-02T14:59:17.927Z,3.13
2023-02-02T15:01:52.326Z,10.18
2023-02-02T15:04:22.235Z,3.22
2023-02-02T15:06:52.906Z,3.67
2023-02-02T15:09:33.860Z,2.08
2023-02-02T15:12:03.441Z,3.08
2023-02-02T15:14:36.112Z,4.35
2023-02-02T15:17:38.117Z,3.25
2023-02-02T15:20:28.722Z,2.78
2023-02-02T15:23:25.784Z,4.15
2023-02-02T15:26:36.898Z,4.25
2023-02-02T15:29:19.307Z,3.47
2023-02-02T15:31:54.669Z,2.75
2023-02-02T15:34:31.301Z,2.33
2023-02-02T15:37:02.750Z,2.92
2023-02-02T15:39:38.571Z,2.42
2023-02-02T15:42:33.037Z,2.78
2023-02-02T15:44:59.834Z,3.05
2023-02-02T15:47:33.952Z,2.63
2023-02-02T15:50:01.819Z,2.42
2023-02-02T15:52:38.268Z,1.98
2023-02-02T15:55:25.218Z,1.25
2023-02-02T15:57:57.432Z,3.40
2023-02-02T16:00:24.409Z,3.35
2023-02-02T16:03:23.212Z,2.28
2023-02-02T16:05:58.138Z,1.65
2023-02-02T16:08:28.956Z,4.40
2023-02-02T16:11:24.852Z,2.58
2023-02-02T16:14:02.718Z,2.35
2023-02-02T16:19:21.052Z,2.78
2023-02-02T16:22:02.216Z,3.00
2023-02-02T16:24:33.954Z,2.65
2023-02-02T16:27:04.946Z,1.73
2023-02-02T16:29:32.837Z,2.25
2023-02-02T16:32:00.073Z,1.33
2023-02-02T16:34:42.257Z,1.73
2023-02-02T16:37:12.151Z,1.77
2023-02-02T16:39:39.394Z,1.90
2023-02-02T16:42:12.092Z,2.33
2023-02-02T16:44:45.293Z,3.55
2023-02-02T16:47:27.095Z,5.95
2023-02-02T16:50:15.239Z,3.35
2023-02-02T16:52:50.748Z,3.60
2023-02-02T16:55:19.828Z,3.92
2023-02-02T16:57:49.491Z,2.83
2023-02-02T17:00:25.924Z,2.80
2023-02-02T17:03:07.535Z,2.97
2023-02-02T17:05:46.102Z,3.17
2023-02-02T17:08:13.009Z,4.00
2023-02-02T17:10:42.891Z,4.40
2023-02-02T17:13:33.611Z,2.80
2023-02-02T17:16:00.776Z,4.00
2023-02-02T17:18:27.567Z,4.00
2023-02-02T17:20:57.961Z,3.17
2023-02-02T17:23:28.600Z,5.72
2023-02-02T17:25:55.784Z,4.55
2023-02-02T17:28:24.978Z,6.90
2023-02-02T17:31:08.915Z,4.90
2023-02-02T17:33:36.556Z,6.65
2023-02-02T17:36:05.022Z,5.55
2023-02-02T17:38:32.872Z,6.53
2023-02-02T17:41:02.879Z,6.03
2023-02-02T17:43:30.519Z,4.78
2023-02-02T17:45:57.622Z,6.47
2023-02-02T17:48:24.391Z,5.07
2023-02-02T17:50:51.732Z,5.93
2023-02-02T17:53:21.787Z,6.18
2023-02-02T17:55:53.611Z,5.53
2023-02-02T17:58:20.457Z,4.57
2023-02-02T18:00:52.215Z,6.75
2023-02-02T18:03:28.987Z,5.07
2023-02-02T18:05:57.922Z,4.13
2023-02-02T18:08:24.801Z,6.00
2023-02-02T18:10:51.944Z,4.28
2023-02-02T18:13:20.966Z,4.57
2023-02-02T18:15:55.848Z,7.30
2023-02-02T18:18:23.421Z,4.32
2023-02-02T18:20:51.328Z,2.65
2023-02-02T18:25:45.926Z,3.05
2023-02-02T18:28:17.367Z,5.00
2023-02-02T18:30:46.707Z,3.95
2023-02-02T18:33:17.307Z,7.10
2023-02-02T18:35:46.105Z,7.05
2023-02-02T18:38:14.741Z,8.40
2023-02-02T18:40:44.720Z,6.15
2023-02-02T18:43:11.397Z,9.57
2023-02-02T18:45:38.180Z,9.20
2023-02-02T18:48:05.365Z,5.60
2023-02-02T18:50:32.258Z,9.40
2023-02-02T18:53:00.517Z,10.18
2023-02-02T18:58:41.033Z,13.18
2023-02-02T19:01:32.922Z,14.50
2023-02-02T19:04:00.516Z,13.98
2023-02-02T19:06:46.291Z,9.55
2023-02-02T19:09:14.303Z,12.07
2023-02-02T19:14:27.166Z,10.75
2023-02-02T19:17:06.335Z,7.32
2023-02-02T19:19:34.606Z,8.95
2023-02-02T19:22:15.352Z,6.63
2023-02-02T19:24:42.073Z,17.85
2023-02-02T19:27:36.304Z,10.90
2023-02-02T19:30:06.003Z,10.68
2023-02-02T19:32:36.425Z,11.40
2023-02-02T19:35:07.391Z,10.52
2023-02-02T19:37:39.242Z,11.02
2023-02-02T19:40:08.729Z,5.38
2023-02-02T19:42:40.287Z,8.02
2023-02-02T19:45:32.754Z,4.72
2023-02-02T19:48:02.717Z,7.38
2023-02-02T19:53:23.948Z,6.55
2023-02-02T19:55:52.566Z,4.72
2023-02-02T20:01:23.643Z,8.80
2023-02-02T20:06:52.659Z,9.40
2023-02-02T20:09:23.194Z,6.07
2023-02-02T20:14:38.566Z,4.32
2023-02-02T20:17:14.172Z,5.97
2023-02-02T20:19:45.830Z,6.05
2023-02-02T20:22:28.366Z,5.50
2023-02-02T20:24:56.824Z,5.15
2023-02-02T20:27:26.349Z,8.43
2023-02-02T20:29:54.758Z,7.03
2023-02-02T20:32:30.415Z,6.55
2023-02-02T20:35:02.468Z,6.60
2023-02-02T20:37:37.329Z,6.72
2023-02-02T20:40:24.871Z,4.15
2023-02-02T20:42:54.192Z,5.60
2023-02-02T20:45:22.098Z,5.85
2023-02-02T20:53:05.546Z,3.70
2023-02-02T20:55:36.168Z,5.65
2023-02-02T21:00:47.580Z,7.72
2023-02-02T21:03:27.684Z,4.78
2023-02-02T21:05:54.397Z,4.60
2023-02-02T21:08:20.958Z,10.40
2023-02-02T21:10:54.265Z,8.55
2023-02-02T21:13:20.984Z,5.05
2023-02-02T21:15:48.880Z,6.35
2023-02-02T21:20:58.180Z,10.55
2023-02-02T21:23:33.394Z,8.95
2023-02-02T21:26:00.024Z,11.38
2023-02-02T21:28:26.699Z,7.18
2023-02-02T21:33:34.457Z,6.47
2023-02-02T21:36:14.086Z,7.68
2023-02-02T21:38:42.172Z,7.00
2023-02-02T22:16:17.550Z,4.65
2023-02-02T22:18:44.333Z,5.07
2023-02-02T22:21:14.173Z,4.70
2023-02-02T22:23:40.707Z,3.33
2023-02-02T22:26:22.800Z,3.38
2023-02-02T22:28:52.015Z,6.15
2023-02-02T22:31:19.033Z,3.17
2023-02-02T22:33:45.939Z,4.57
2023-02-02T22:36:12.548Z,4.53
2023-02-02T22:38:39.112Z,5.20
2023-02-02T22:41:06.531Z,5.63
2023-02-02T22:43:33.282Z,5.35
2023-02-02T22:46:00.150Z,3.17
2023-02-02T22:48:26.816Z,6.07
2023-02-02T22:50:53.444Z,4.20
2023-02-02T22:53:20.090Z,6.93
2023-02-02T22:55:46.651Z,3.88
2023-02-02T22:58:13.259Z,6.35
2023-02-02T23:00:39.895Z,4.78
2023-02-02T23:03:06.576Z,6.72
2023-02-02T23:05:33.311Z,5.32
2023-02-02T23:08:00.062Z,7.03
2023-02-02T23:10:28.125Z,4.47
2023-02-02T23:12:58.580Z,3.53
2023-02-02T23:15:25.438Z,5.35
2023-02-02T23:17:52.589Z,5.40
2023-02-02T23:20:19.647Z,5.53
2023-02-02T23:22:46.258Z,4.20
2023-02-02T23:25:13.594Z,6.97
2023-02-02T23:27:40.306Z,6.22
2023-02-02T23:30:08.584Z,5.32
2023-02-02T23:32:35.728Z,6.20
2023-02-02T23:35:02.735Z,5.47
2023-02-02T23:37:29.352Z,3.87
2023-02-02T23:39:55.916Z,5.38
2023-02-02T23:42:22.598Z,6.28
2023-02-02T23:44:49.289Z,5.22
2023-02-02T23:47:16.092Z,5.47
2023-02-02T23:49:43.137Z,3.25
2023-02-02T23:52:10.085Z,4.40
2023-02-02T23:54:37.190Z,6.72
2023-02-02T23:57:04.206Z,4.57
2023-02-02T23:59:30.800Z,4.13
